Alma, Michigan
Current Conditions -  °F | °C
As of 5:32 AM on Friday 21 Nov 2014 (Local Time) from KAMN Reporting Station
Clear Clear  
Wind Chill: -15°   Ceiling: Unl
Heat Index: -15°   Visibility: 7mi
Dew Point: -16°   Wind: 0mph
Humidity: 92%   Direction: NA
Pressure: 30.32"   Gusts: NA
Location:  43.38°N, 84.66°W
Report Text: KAMN 211032Z AUTO 00000KT 7SM CLR M15/M16 A3032 RMK AO2 T11501160
Loading
Personal Weather Stations






























Interactive Weather Map New forecast layout! Learn more

10-Day Weather Forecast

Advertisements
Track Severe Weather on mobile